CYUS

Shepherd Bay Airport

Shepherd Bay, Canada
METAR CYUS 180000Z AUTO 10009G16KT 080V230 ////SM //// SCT050 OVC065 M11/M13 A2966
Observed Flight Rules
Oct-18 @ 00:00 UTC (45 minutes ago)
Wind Clouds
100° at 9 knots
 Gusting to 16 knots
  • Scattered at 5,000' AGL
  • Overcast at 6,500' AGL
Temperatures Readings
Current -11°C / 12°F
Dewpoint -13°C / 9°F
Humidity 85%
Altimeter 29.66" Hg
Pressure 1004 hPa
Elevation 42
METAR CYUS 180000Z AUTO 10009G16KT 080V230 ////SM //// SCT050 OVC065 M11/M13 A2966
Observed Flight Rules
Oct-18 @ 00:00 UTC
(45 minutes ago)
Wind
100° at 9 knots
 Gusting to 16 knots
Clouds
  • Scattered at 5,000' AGL
  • Overcast at 6,500' AGL
Temperature Dewpoint
-11°C / 12°F -13°C / 9°F
Humidity Altimeter Pressure
85% 29.66" Hg 1004 hPa